Laurencekirk, United Kingdom
Current Conditions -  °F | °C
As of 12:20 PM on Friday 28 Nov 2014 (Local Time) from EGPD Reporting Station
Broken Clouds Broken Clouds  
Wind Chill: 50°   Ceiling: 1100
Heat Index: 50°   Visibility: 5mi
Dew Point: 48°   Wind: 12mph
Humidity: 94%   Direction: 130°SE
Pressure: 29.85"   Gusts: NA
Location:  56.83°N, 2.47°W
Report Text: EGPD 281220Z 13010KT 8000 SCT007 BKN011 10/09 Q1011 NOSIG
Loading
Personal Weather Stations






























Interactive Weather Map New forecast layout! Learn more

10-Day Weather Forecast

Advertisements
Track Severe Weather on mobile